createdAt,value
2019-06-10T00:00:32.387Z,0.00
2019-06-10T00:01:32.373Z,0.00
2019-06-10T00:02:32.414Z,0.00
2019-06-10T00:03:32.344Z,0.00
2019-06-10T00:04:32.378Z,0.00
2019-06-10T00:05:32.607Z,0.00
2019-06-10T00:06:32.377Z,0.00
2019-06-10T00:07:32.280Z,0.00
2019-06-10T00:08:32.270Z,0.00
2019-06-10T00:09:32.265Z,0.00
2019-06-10T00:10:32.234Z,0.00
2019-06-10T00:11:32.556Z,0.00
2019-06-10T00:12:32.203Z,0.00
2019-06-10T00:13:32.314Z,0.00
2019-06-10T00:14:32.199Z,0.00
2019-06-10T00:15:32.671Z,0.00
2019-06-10T00:18:41.122Z,0.00
2019-06-10T00:19:32.824Z,0.00
2019-06-10T00:22:32.068Z,0.00
2019-06-10T00:23:32.179Z,0.00
2019-06-10T00:24:32.349Z,0.00
2019-06-10T00:25:32.077Z,0.00
2019-06-10T00:27:32.398Z,0.00
2019-06-10T00:28:32.040Z,0.00
2019-06-10T00:29:32.044Z,0.00
2019-06-10T00:30:32.905Z,0.00
2019-06-10T00:31:32.265Z,0.00
2019-06-10T00:32:32.139Z,0.00
2019-06-10T00:33:31.923Z,0.00
2019-06-10T00:34:35.006Z,0.00
2019-06-10T00:36:31.865Z,0.00
2019-06-10T00:37:32.168Z,0.00
2019-06-10T00:38:32.030Z,0.00
2019-06-10T00:39:31.924Z,0.00
2019-06-10T00:40:31.828Z,0.00
2019-06-10T00:41:31.837Z,0.00
2019-06-10T00:42:31.856Z,0.00
2019-06-10T00:44:32.051Z,0.00
2019-06-10T00:45:31.846Z,0.00
2019-06-10T00:46:31.894Z,0.00
2019-06-10T00:47:31.713Z,0.00
2019-06-10T00:48:32.390Z,0.00
2019-06-10T00:49:31.790Z,0.00
2019-06-10T00:50:31.670Z,0.00
2019-06-10T00:51:31.969Z,0.00
2019-06-10T00:52:31.646Z,0.00
2019-06-10T00:53:31.814Z,0.00
2019-06-10T00:54:31.657Z,0.00
2019-06-10T00:55:31.591Z,0.00
2019-06-10T00:56:31.597Z,0.00
2019-06-10T00:57:31.584Z,0.00
2019-06-10T00:58:32.140Z,0.00
2019-06-10T00:59:31.533Z,0.00
2019-06-10T01:00:31.853Z,0.00
2019-06-10T01:01:31.590Z,0.00
2019-06-10T01:02:31.916Z,0.00
2019-06-10T01:03:31.624Z,0.00
2019-06-10T01:04:31.874Z,0.00
2019-06-10T01:05:31.877Z,0.00
2019-06-10T01:07:31.420Z,0.00
2019-06-10T01:08:31.693Z,0.00
2019-06-10T01:09:31.751Z,0.00
2019-06-10T01:10:31.683Z,0.00
2019-06-10T01:11:31.370Z,0.00
2019-06-10T01:12:31.755Z,0.00
2019-06-10T01:13:31.331Z,0.00
2019-06-10T01:14:31.975Z,0.00
2019-06-10T01:15:31.470Z,0.00
2019-06-10T01:16:31.817Z,0.00
2019-06-10T01:18:37.840Z,0.00
2019-06-10T01:19:31.601Z,0.00
2019-06-10T01:20:32.539Z,0.00
2019-06-10T01:21:31.443Z,0.00
2019-06-10T01:22:31.661Z,0.00
2019-06-10T01:23:31.219Z,0.00
2019-06-10T01:25:31.244Z,0.00
2019-06-10T01:26:31.489Z,0.00
2019-06-10T01:27:31.577Z,0.00
2019-06-10T01:28:31.537Z,0.00
2019-06-10T01:29:31.453Z,0.00
2019-06-10T01:30:31.321Z,0.00
2019-06-10T01:31:31.695Z,0.00
2019-06-10T01:32:31.916Z,0.00
2019-06-10T01:33:31.860Z,0.00
2019-06-10T01:34:31.238Z,0.00
2019-06-10T01:35:31.021Z,0.00
2019-06-10T01:36:31.464Z,0.00
2019-06-10T01:37:31.206Z,0.00
2019-06-10T01:38:31.737Z,0.00
2019-06-10T01:39:31.124Z,0.00
2019-06-10T01:40:31.447Z,0.00
2019-06-10T01:41:30.934Z,0.00
2019-06-10T01:43:31.988Z,0.00
2019-06-10T01:44:31.195Z,0.00
2019-06-10T01:45:31.302Z,0.00
2019-06-10T01:46:31.654Z,0.00
2019-06-10T01:47:31.054Z,0.00
2019-06-10T01:48:43.254Z,0.00
2019-06-10T01:49:30.962Z,0.00
2019-06-10T01:50:31.221Z,0.00
2019-06-10T01:51:31.733Z,0.00
2019-06-10T01:52:31.647Z,0.00
2019-06-10T01:53:31.431Z,0.00
2019-06-10T01:54:31.645Z,0.00
2019-06-10T01:55:31.288Z,0.00
2019-06-10T01:56:31.461Z,0.00
2019-06-10T01:57:30.893Z,0.00
2019-06-10T01:58:31.574Z,0.00
2019-06-10T01:59:31.257Z,0.00
2019-06-10T02:00:31.157Z,0.00
2019-06-10T02:01:30.772Z,0.00
2019-06-10T02:02:34.932Z,0.00
2019-06-10T02:03:31.451Z,0.00
2019-06-10T02:04:32.038Z,0.00
2019-06-10T02:06:31.655Z,0.00
2019-06-10T02:07:31.991Z,0.00
2019-06-10T02:08:31.677Z,0.00
2019-06-10T02:09:31.006Z,0.00
2019-06-10T02:10:31.068Z,0.00
2019-06-10T02:11:31.754Z,0.00
2019-06-10T02:12:31.560Z,0.00
2019-06-10T02:13:32.675Z,0.00
2019-06-10T02:14:31.775Z,0.00
2019-06-10T02:17:31.448Z,0.00
2019-06-10T02:18:31.943Z,0.00
2019-06-10T02:19:31.073Z,0.00
2019-06-10T02:20:31.779Z,0.00
2019-06-10T02:21:31.119Z,0.00
2019-06-10T02:22:31.812Z,0.00
2019-06-10T02:23:31.369Z,0.00
2019-06-10T02:24:31.571Z,0.00
2019-06-10T02:25:30.566Z,0.00
2019-06-10T02:26:30.889Z,4.00
2019-06-10T02:27:31.474Z,4.00
2019-06-10T02:28:31.648Z,4.00
2019-06-10T02:31:37.372Z,4.00
2019-06-10T02:33:35.737Z,4.00
2019-06-10T02:34:33.100Z,4.00
2019-06-10T02:35:44.019Z,8.00
2019-06-10T02:36:35.437Z,8.00
2019-06-10T02:37:32.166Z,8.00
2019-06-10T02:38:37.898Z,12.00
2019-06-10T02:39:37.547Z,12.00
2019-06-10T02:40:33.138Z,16.00
2019-06-10T02:41:35.363Z,16.00
2019-06-10T02:43:33.264Z,20.00
2019-06-10T02:44:34.313Z,20.00
2019-06-10T02:45:36.299Z,20.00
2019-06-10T02:47:33.622Z,32.00
2019-06-10T02:48:30.678Z,32.00
2019-06-10T02:49:51.479Z,32.00
2019-06-10T02:50:33.509Z,36.00
2019-06-10T02:51:31.566Z,36.00
2019-06-10T02:53:35.162Z,36.00
2019-06-10T02:54:34.796Z,40.00
2019-06-10T02:55:31.817Z,44.00
2019-06-10T02:56:34.981Z,44.00
2019-06-10T02:57:36.609Z,48.00
2019-06-10T02:58:34.187Z,48.00
2019-06-10T02:59:32.858Z,52.00
2019-06-10T03:00:42.628Z,52.00
2019-06-10T03:01:34.315Z,56.00
2019-06-10T03:02:33.074Z,60.00
2019-06-10T03:03:39.369Z,68.00
2019-06-10T03:04:32.607Z,80.00
2019-06-10T03:06:36.354Z,100.00
2019-06-10T03:07:32.647Z,112.00
2019-06-10T03:09:32.022Z,140.00
2019-06-10T03:10:33.030Z,168.00
2019-06-10T03:11:35.653Z,184.00
2019-06-10T03:12:29.878Z,196.00
2019-06-10T03:14:29.550Z,208.00
2019-06-10T03:15:29.557Z,208.00
2019-06-10T03:16:29.629Z,204.00
2019-06-10T03:17:32.148Z,200.00
2019-06-10T03:19:42.155Z,196.00
2019-06-10T03:20:29.515Z,188.00
2019-06-10T03:21:29.457Z,176.00
2019-06-10T03:22:29.435Z,172.00
2019-06-10T03:23:31.857Z,176.00
2019-06-10T03:24:29.408Z,184.00
2019-06-10T03:25:29.690Z,204.00
2019-06-10T03:26:29.369Z,224.00
2019-06-10T03:27:29.372Z,236.00
2019-06-10T03:28:29.345Z,244.00
2019-06-10T03:29:29.332Z,252.00
2019-06-10T03:30:44.212Z,256.00
2019-06-10T03:31:40.099Z,264.00
2019-06-10T03:32:35.696Z,280.00
2019-06-10T03:33:36.719Z,312.00
2019-06-10T03:34:36.204Z,344.00
2019-06-10T03:35:29.235Z,372.00
2019-06-10T03:36:29.284Z,380.00
2019-06-10T03:37:29.547Z,356.00
2019-06-10T03:38:29.206Z,340.00
2019-06-10T03:40:29.167Z,320.00
2019-06-10T03:41:29.365Z,316.00
2019-06-10T03:42:29.787Z,316.00
2019-06-10T03:43:29.179Z,320.00
2019-06-10T03:44:29.410Z,336.00
2019-06-10T03:45:29.131Z,348.00
2019-06-10T03:46:29.080Z,356.00
2019-06-10T03:47:29.063Z,352.00
2019-06-10T03:48:29.055Z,328.00
2019-06-10T03:49:29.025Z,292.00
2019-06-10T03:50:29.011Z,264.00
2019-06-10T03:51:29.318Z,244.00
2019-06-10T03:52:29.049Z,228.00
2019-06-10T03:53:28.978Z,224.00
2019-06-10T03:54:29.544Z,228.00
2019-06-10T03:55:29.164Z,232.00
2019-06-10T03:56:28.980Z,232.00
2019-06-10T03:57:29.010Z,224.00
2019-06-10T03:58:29.317Z,220.00
2019-06-10T03:59:29.621Z,216.00
2019-06-10T04:00:29.022Z,208.00
2019-06-10T04:01:30.122Z,196.00
2019-06-10T04:02:28.874Z,180.00
2019-06-10T04:03:29.365Z,196.00
2019-06-10T04:04:28.803Z,224.00
2019-06-10T04:05:29.089Z,244.00
2019-06-10T04:06:29.555Z,248.00
2019-06-10T04:07:31.231Z,244.00
2019-06-10T04:09:28.899Z,244.00
2019-06-10T04:11:31.599Z,276.00
2019-06-10T04:12:29.187Z,296.00
2019-06-10T04:13:28.667Z,312.00
2019-06-10T04:14:28.747Z,324.00
2019-06-10T04:15:29.588Z,336.00
2019-06-10T04:16:28.628Z,332.00
2019-06-10T04:17:28.868Z,304.00
2019-06-10T04:18:29.462Z,260.00
2019-06-10T04:19:28.879Z,216.00
2019-06-10T04:20:29.601Z,196.00
2019-06-10T04:21:28.550Z,184.00
2019-06-10T04:22:28.533Z,176.00
2019-06-10T04:23:28.520Z,188.00
2019-06-10T04:24:28.690Z,204.00
2019-06-10T04:27:28.585Z,224.00
2019-06-10T04:28:28.783Z,228.00
2019-06-10T04:29:29.050Z,240.00
2019-06-10T04:30:29.291Z,268.00
2019-06-10T04:31:29.696Z,312.00
2019-06-10T04:33:28.823Z,480.00
2019-06-10T04:34:30.381Z,580.00
2019-06-10T04:35:29.114Z,672.00
2019-06-10T04:36:29.402Z,744.00
2019-06-10T04:37:29.554Z,812.00
2019-06-10T04:38:29.099Z,872.00
2019-06-10T04:42:28.982Z,1032.00
2019-06-10T04:43:28.923Z,1108.00
2019-06-10T04:44:29.395Z,1180.00
2019-06-10T04:45:29.193Z,1224.00
2019-06-10T04:47:29.680Z,1328.00
2019-06-10T04:50:37.245Z,1320.00
2019-06-10T04:51:29.672Z,1284.00
2019-06-10T04:52:29.664Z,1296.00
2019-06-10T04:53:29.401Z,1388.00
2019-06-10T04:54:28.679Z,1564.00
2019-06-10T04:55:29.240Z,1764.00
2019-06-10T04:56:29.344Z,1940.00
2019-06-10T04:57:28.411Z,1992.00
2019-06-10T04:58:29.127Z,1980.00
2019-06-10T04:59:30.087Z,1832.00
2019-06-10T05:00:29.128Z,1656.00
2019-06-10T05:01:28.921Z,1464.00
2019-06-10T05:03:29.519Z,1180.00
2019-06-10T05:04:28.724Z,1212.00
2019-06-10T05:05:28.833Z,1332.00
2019-06-10T05:06:28.660Z,1408.00
2019-06-10T05:07:32.044Z,1384.00
2019-06-10T05:08:28.477Z,1356.00
2019-06-10T05:09:29.416Z,1376.00
2019-06-10T05:10:28.308Z,1424.00
2019-06-10T05:11:28.934Z,1500.00
2019-06-10T05:12:28.052Z,1632.00
2019-06-10T05:13:28.368Z,1824.00
2019-06-10T05:14:29.123Z,2064.00
2019-06-10T05:15:29.867Z,2272.00
2019-06-10T05:16:31.889Z,2492.00
2019-06-10T05:17:30.626Z,2680.00
2019-06-10T05:18:29.071Z,2732.00
2019-06-10T05:19:29.085Z,2736.00
2019-06-10T05:20:44.649Z,2844.00
2019-06-10T05:21:29.214Z,3028.00
2019-06-10T05:22:28.473Z,3336.00
2019-06-10T05:23:27.980Z,3560.00
2019-06-10T05:24:29.575Z,3696.00
2019-06-10T05:25:28.462Z,3904.00
2019-06-10T05:26:28.831Z,4096.00
2019-06-10T05:27:28.593Z,4016.00
2019-06-10T05:28:28.721Z,3812.00
2019-06-10T05:30:29.462Z,3720.00
2019-06-10T05:31:28.924Z,3776.00
2019-06-10T05:33:28.614Z,4448.00
2019-06-10T05:34:28.760Z,4796.00
2019-06-10T05:35:28.464Z,5068.00
2019-06-10T05:36:28.996Z,5284.00
2019-06-10T05:37:28.230Z,5228.00
2019-06-10T05:38:28.823Z,5240.00
2019-06-10T05:39:28.772Z,5156.00
2019-06-10T05:40:27.645Z,5048.00
2019-06-10T05:41:28.967Z,4868.00
2019-06-10T05:42:28.176Z,4868.00
2019-06-10T05:43:27.858Z,4940.00
2019-06-10T05:44:28.458Z,4648.00
2019-06-10T05:45:28.797Z,4228.00
2019-06-10T05:46:28.706Z,3824.00
2019-06-10T05:47:28.317Z,3524.00
2019-06-10T05:49:28.822Z,3244.00
2019-06-10T05:51:27.895Z,2924.00
2019-06-10T05:53:28.018Z,2700.00
2019-06-10T05:54:27.569Z,2680.00
2019-06-10T05:55:27.244Z,2788.00
2019-06-10T05:56:27.232Z,2928.00
2019-06-10T05:57:27.417Z,3104.00
2019-06-10T05:58:27.799Z,3344.00
2019-06-10T05:59:27.370Z,3644.00
2019-06-10T06:00:27.543Z,3920.00
2019-06-10T06:01:27.564Z,4000.00
2019-06-10T06:02:27.764Z,4056.00
2019-06-10T06:03:27.797Z,4144.00
2019-06-10T06:04:28.042Z,4328.00
2019-06-10T06:06:27.107Z,4492.00
2019-06-10T06:07:27.083Z,4144.00
2019-06-10T06:08:27.118Z,3580.00
2019-06-10T06:09:27.192Z,3320.00
2019-06-10T06:10:27.352Z,3368.00
2019-06-10T06:12:27.381Z,4060.00
2019-06-10T06:13:27.451Z,4296.00
2019-06-10T06:14:27.535Z,4400.00
2019-06-10T06:15:27.451Z,4360.00
2019-06-10T06:16:27.658Z,4576.00
2019-06-10T06:17:27.902Z,4816.00
2019-06-10T06:18:27.895Z,4880.00
2019-06-10T06:19:28.112Z,5040.00
2019-06-10T06:20:27.078Z,5120.00
2019-06-10T06:22:27.435Z,4348.00
2019-06-10T06:23:28.544Z,3896.00
2019-06-10T06:25:27.646Z,3180.00
2019-06-10T06:26:28.374Z,3096.00
2019-06-10T06:27:26.914Z,2972.00
2019-06-10T06:28:27.940Z,2916.00
2019-06-10T06:29:27.110Z,2996.00
2019-06-10T06:30:27.976Z,3144.00
2019-06-10T06:31:26.716Z,3184.00
2019-06-10T06:32:28.514Z,3056.00
2019-06-10T06:34:28.341Z,2900.00
2019-06-10T06:35:26.655Z,2984.00
2019-06-10T06:36:26.796Z,3264.00
2019-06-10T06:37:26.864Z,3624.00
2019-06-10T06:38:26.895Z,4192.00
2019-06-10T06:39:27.045Z,4904.00
2019-06-10T06:40:27.213Z,5796.00
2019-06-10T06:41:27.424Z,6300.00
2019-06-10T06:42:27.359Z,6604.00
2019-06-10T06:43:28.941Z,6616.00
2019-06-10T06:44:27.568Z,6200.00
2019-06-10T06:45:27.603Z,5500.00
2019-06-10T06:46:27.592Z,4664.00
2019-06-10T06:47:27.755Z,4200.00
2019-06-10T06:48:26.486Z,4176.00
2019-06-10T06:49:27.830Z,4504.00
2019-06-10T06:50:26.567Z,5544.00
2019-06-10T06:51:40.036Z,6652.00
2019-06-10T06:52:55.592Z,7560.00
2019-06-10T06:53:33.172Z,8304.00
2019-06-10T06:55:26.402Z,9200.00
2019-06-10T06:56:26.585Z,8984.00
2019-06-10T06:57:26.370Z,8912.00
2019-06-10T06:58:26.348Z,8664.00
2019-06-10T06:59:26.339Z,8748.00
2019-06-10T07:01:26.609Z,8960.00
2019-06-10T07:02:26.310Z,8940.00
2019-06-10T07:03:26.291Z,8840.00
2019-06-10T07:04:26.285Z,8868.00
2019-06-10T07:05:26.396Z,8884.00
2019-06-10T07:07:26.831Z,7856.00
2019-06-10T07:08:26.776Z,7332.00
2019-06-10T07:09:26.248Z,6892.00
2019-06-10T07:11:26.322Z,5632.00
2019-06-10T07:12:26.238Z,5144.00
2019-06-10T07:13:26.266Z,4816.00
2019-06-10T07:15:26.729Z,4572.00
2019-06-10T07:16:28.931Z,4508.00
2019-06-10T07:17:26.167Z,4380.00
2019-06-10T07:18:26.413Z,4140.00
2019-06-10T07:19:26.255Z,3932.00
2019-06-10T07:20:26.173Z,3716.00
2019-06-10T07:21:26.102Z,3436.00
2019-06-10T07:22:26.470Z,3148.00
2019-06-10T07:24:26.194Z,2832.00
2019-06-10T07:25:26.199Z,3012.00
2019-06-10T07:26:26.018Z,3380.00
2019-06-10T07:27:26.101Z,3856.00
2019-06-10T07:28:25.998Z,4420.00
2019-06-10T07:30:26.073Z,5628.00
2019-06-10T07:32:26.032Z,6600.00
2019-06-10T07:33:26.021Z,7028.00
2019-06-10T07:34:26.456Z,7480.00
2019-06-10T07:35:26.450Z,7928.00
2019-06-10T07:36:25.948Z,8320.00
2019-06-10T07:37:25.995Z,8976.00
2019-06-10T07:38:26.394Z,9524.00
2019-06-10T07:39:25.911Z,9152.00
2019-06-10T07:40:25.928Z,8228.00
2019-06-10T07:41:26.244Z,7112.00
2019-06-10T07:43:26.035Z,5908.00
2019-06-10T07:44:27.470Z,5868.00
2019-06-10T07:45:26.138Z,6464.00
2019-06-10T07:46:28.980Z,7252.00
2019-06-10T07:47:26.414Z,9172.00
2019-06-10T07:49:26.099Z,12004.00
2019-06-10T07:50:26.006Z,12436.00
2019-06-10T07:51:26.717Z,14624.00
2019-06-10T07:52:26.511Z,15488.00
2019-06-10T07:53:27.271Z,15232.00
2019-06-10T07:54:26.007Z,15424.00
2019-06-10T07:55:26.475Z,14816.00
2019-06-10T07:56:29.001Z,14400.00
2019-06-10T07:57:27.230Z,12520.00
2019-06-10T07:58:29.689Z,13068.00
2019-06-10T08:02:26.456Z,14044.00
2019-06-10T08:03:25.686Z,11436.00
2019-06-10T08:05:27.043Z,9040.00
2019-06-10T08:06:27.990Z,10420.00
2019-06-10T08:07:27.599Z,9772.00
2019-06-10T08:08:26.112Z,10544.00
2019-06-10T08:09:26.166Z,10348.00
2019-06-10T08:11:27.167Z,8480.00
2019-06-10T08:12:25.562Z,7896.00
2019-06-10T08:13:27.370Z,8028.00
2019-06-10T08:16:25.720Z,7396.00
2019-06-10T08:17:25.657Z,7372.00
2019-06-10T08:18:25.967Z,7544.00
2019-06-10T08:20:26.529Z,8308.00
2019-06-10T08:21:26.349Z,8328.00
2019-06-10T08:26:25.632Z,8692.00
2019-06-10T08:27:25.493Z,7784.00
2019-06-10T08:29:25.677Z,8320.00
2019-06-10T08:30:27.669Z,9560.00
2019-06-10T08:31:25.612Z,9984.00
2019-06-10T08:32:25.704Z,10736.00
2019-06-10T08:33:25.488Z,11340.00
2019-06-10T08:34:25.439Z,11404.00
2019-06-10T08:35:38.312Z,11524.00
2019-06-10T08:36:25.310Z,11036.00
2019-06-10T08:37:25.473Z,10300.00
2019-06-10T08:38:25.393Z,10104.00
2019-06-10T08:39:25.646Z,8712.00
2019-06-10T08:40:25.639Z,10100.00
2019-06-10T08:41:25.277Z,9380.00
2019-06-10T08:42:25.314Z,9448.00
2019-06-10T08:43:25.250Z,10744.00
2019-06-10T08:44:25.254Z,13320.00
2019-06-10T08:45:25.239Z,11352.00
2019-06-10T08:46:25.527Z,14624.00
2019-06-10T08:47:25.233Z,14688.00
2019-06-10T08:48:25.206Z,15680.00
2019-06-10T08:49:25.201Z,16160.00
2019-06-10T08:50:25.230Z,15744.00
2019-06-10T08:51:25.189Z,15680.00
2019-06-10T08:52:25.202Z,16288.00
2019-06-10T08:53:25.478Z,14112.00
2019-06-10T08:54:25.318Z,14652.00
2019-06-10T08:56:25.384Z,13912.00
2019-06-10T08:58:25.200Z,12492.00
2019-06-10T08:59:26.496Z,11540.00
2019-06-10T09:01:25.133Z,9188.00
2019-06-10T09:03:25.166Z,9076.00
2019-06-10T09:05:25.231Z,8592.00
2019-06-10T09:06:25.090Z,8504.00
2019-06-10T09:07:26.866Z,8560.00
2019-06-10T09:08:25.344Z,8640.00
2019-06-10T09:09:25.396Z,8696.00
2019-06-10T09:10:25.070Z,8732.00
2019-06-10T09:11:25.529Z,8796.00
2019-06-10T09:12:32.915Z,8916.00
2019-06-10T09:13:25.058Z,9016.00
2019-06-10T09:15:25.048Z,9256.00
2019-06-10T09:16:25.039Z,9476.00
2019-06-10T09:17:25.027Z,9700.00
2019-06-10T09:18:25.695Z,9940.00
2019-06-10T09:19:25.766Z,10192.00
2019-06-10T09:20:26.571Z,10408.00
2019-06-10T09:21:25.746Z,10764.00
2019-06-10T09:22:25.144Z,12100.00
2019-06-10T09:23:26.054Z,14128.00
2019-06-10T09:24:25.229Z,14468.00
2019-06-10T09:25:25.594Z,15088.00
2019-06-10T09:28:25.337Z,14060.00
2019-06-10T09:29:25.011Z,13540.00
2019-06-10T09:30:24.995Z,12216.00
2019-06-10T09:31:25.326Z,11236.00
2019-06-10T09:32:25.718Z,11092.00
2019-06-10T09:33:26.321Z,10720.00
2019-06-10T09:35:24.952Z,10976.00
2019-06-10T09:36:25.221Z,10996.00
2019-06-10T09:38:25.292Z,10444.00
2019-06-10T09:39:25.010Z,10752.00
2019-06-10T09:40:24.981Z,10708.00
2019-06-10T09:41:36.435Z,11452.00
2019-06-10T09:42:25.451Z,11256.00
2019-06-10T09:43:25.575Z,11308.00
2019-06-10T09:44:25.265Z,11628.00
2019-06-10T09:45:25.285Z,11884.00
2019-06-10T09:47:25.017Z,12000.00
2019-06-10T09:48:25.070Z,12856.00
2019-06-10T09:50:24.936Z,13592.00
2019-06-10T09:51:25.019Z,14304.00
2019-06-10T09:52:24.948Z,15904.00
2019-06-10T09:53:33.350Z,23712.00
2019-06-10T09:54:25.068Z,40864.00
2019-06-10T09:55:24.950Z,57760.00
2019-06-10T09:56:25.598Z,21824.00
2019-06-10T09:57:24.965Z,64256.00
2019-06-10T09:58:25.258Z,70816.00
2019-06-10T09:59:26.016Z,75168.00
2019-06-10T10:00:29.342Z,73728.00
2019-06-10T10:01:29.574Z,69152.00
2019-06-10T10:05:24.925Z,20352.00
2019-06-10T10:06:25.064Z,24416.00
2019-06-10T10:07:25.700Z,47072.00
2019-06-10T10:08:25.021Z,60224.00
2019-06-10T10:09:25.342Z,63904.00
2019-06-10T10:10:25.077Z,73056.00
2019-06-10T10:11:28.518Z,76928.00
2019-06-10T10:15:30.891Z,82272.00
2019-06-10T10:16:25.148Z,83328.00
2019-06-10T10:17:24.931Z,82912.00
2019-06-10T10:18:25.139Z,81440.00
2019-06-10T10:19:24.974Z,84480.00
2019-06-10T10:20:25.010Z,83168.00
2019-06-10T10:21:25.076Z,81568.00
2019-06-10T10:22:28.726Z,81984.00
2019-06-10T10:23:25.979Z,82976.00
2019-06-10T10:24:27.372Z,79648.00
2019-06-10T10:25:24.936Z,79648.00
2019-06-10T10:26:25.062Z,83904.00
2019-06-10T10:28:26.454Z,84448.00
2019-06-10T10:29:25.337Z,86560.00
2019-06-10T10:31:24.970Z,85824.00
2019-06-10T10:32:25.003Z,82464.00
2019-06-10T10:33:29.723Z,82240.00
2019-06-10T10:34:25.078Z,82560.00
2019-06-10T10:35:26.222Z,84832.00
2019-06-10T10:36:25.005Z,84864.00
2019-06-10T10:38:25.208Z,83360.00
2019-06-10T10:43:32.647Z,84352.00
2019-06-10T10:44:25.796Z,84768.00
2019-06-10T10:45:25.575Z,84608.00
2019-06-10T10:46:45.599Z,85728.00
2019-06-10T10:47:27.525Z,85504.00
2019-06-10T10:48:25.760Z,84416.00
2019-06-10T10:49:26.031Z,84416.00
2019-06-10T10:50:25.411Z,82816.00
2019-06-10T10:51:26.401Z,84800.00
2019-06-10T10:52:25.924Z,85728.00
2019-06-10T10:54:32.773Z,82688.00
2019-06-10T10:55:24.989Z,82368.00
2019-06-10T10:56:25.718Z,81728.00
2019-06-10T10:57:25.031Z,83904.00
2019-06-10T10:58:25.010Z,86016.00
2019-06-10T10:59:25.060Z,86592.00
2019-06-10T11:00:25.336Z,85248.00
2019-06-10T11:01:24.994Z,85600.00
2019-06-10T11:02:25.039Z,83680.00
2019-06-10T11:03:25.208Z,84384.00
2019-06-10T11:04:25.006Z,84064.00
2019-06-10T11:05:25.086Z,82272.00
2019-06-10T11:06:25.700Z,83680.00
2019-06-10T11:07:26.686Z,83840.00
2019-06-10T11:09:25.482Z,81248.00
2019-06-10T11:10:25.050Z,80416.00
2019-06-10T11:11:25.031Z,80640.00
2019-06-10T11:12:25.517Z,80736.00
2019-06-10T11:13:25.033Z,59776.00
2019-06-10T11:14:25.248Z,31968.00
2019-06-10T11:15:25.179Z,23040.00
2019-06-10T11:16:25.577Z,22592.00
2019-06-10T11:17:25.819Z,21792.00
2019-06-10T11:18:25.442Z,22144.00
2019-06-10T11:19:25.158Z,23424.00
2019-06-10T11:20:25.271Z,24576.00
2019-06-10T11:21:25.066Z,26048.00
2019-06-10T11:22:25.420Z,29344.00
2019-06-10T11:23:25.073Z,51584.00
2019-06-10T11:24:36.601Z,82464.00
2019-06-10T11:25:25.793Z,79616.00
2019-06-10T11:28:35.672Z,79968.00
2019-06-10T11:29:25.097Z,82624.00
2019-06-10T11:31:25.634Z,83552.00
2019-06-10T11:32:26.162Z,27168.00
2019-06-10T11:33:26.110Z,81024.00
2019-06-10T11:34:25.482Z,79328.00
2019-06-10T11:35:25.751Z,79904.00
2019-06-10T11:36:25.620Z,80576.00
2019-06-10T11:37:25.423Z,81600.00
2019-06-10T11:38:25.747Z,85664.00
2019-06-10T11:40:26.512Z,54560.00
2019-06-10T11:41:26.110Z,82944.00
2019-06-10T11:42:25.937Z,85632.00
2019-06-10T11:43:25.555Z,82752.00
2019-06-10T11:44:25.878Z,81408.00
2019-06-10T11:45:25.582Z,82176.00
2019-06-10T11:47:26.584Z,75456.00
2019-06-10T11:48:25.345Z,82368.00
2019-06-10T11:49:25.341Z,83232.00
2019-06-10T11:50:25.576Z,80384.00
2019-06-10T11:51:25.245Z,79424.00
2019-06-10T11:52:25.381Z,77088.00
2019-06-10T11:53:28.677Z,79360.00
2019-06-10T11:54:25.386Z,81888.00
2019-06-10T11:56:25.550Z,80800.00
2019-06-10T11:57:25.336Z,14384.00
2019-06-10T11:58:25.330Z,16736.00
2019-06-10T11:59:25.572Z,33824.00
2019-06-10T12:00:25.246Z,46944.00
2019-06-10T12:01:25.241Z,17088.00
2019-06-10T12:02:25.290Z,14288.00
2019-06-10T12:03:25.541Z,40192.00
2019-06-10T12:04:26.150Z,19168.00
2019-06-10T12:05:25.287Z,12548.00
2019-06-10T12:06:25.496Z,21664.00
2019-06-10T12:07:25.458Z,14848.00
2019-06-10T12:08:25.350Z,14312.00
2019-06-10T12:09:25.330Z,13344.00
2019-06-10T12:10:25.706Z,13372.00
2019-06-10T12:11:25.612Z,17952.00
2019-06-10T12:12:25.509Z,31456.00
2019-06-10T12:13:25.738Z,52064.00
2019-06-10T12:14:27.229Z,83360.00
2019-06-10T12:15:28.266Z,17024.00
2019-06-10T12:17:41.919Z,18048.00
2019-06-10T12:18:25.815Z,16832.00
2019-06-10T12:19:25.345Z,20192.00
2019-06-10T12:20:28.469Z,64960.00
2019-06-10T12:21:25.676Z,86976.00
2019-06-10T12:22:26.284Z,88192.00
2019-06-10T12:23:25.769Z,88576.00
2019-06-10T12:24:25.564Z,87808.00
2019-06-10T12:25:35.017Z,57472.00
2019-06-10T12:26:25.546Z,77056.00
2019-06-10T12:27:25.892Z,80000.00
2019-06-10T12:28:25.463Z,77600.00
2019-06-10T12:29:26.635Z,18176.00
2019-06-10T12:30:25.432Z,68064.00
2019-06-10T12:31:25.973Z,82016.00
2019-06-10T12:32:25.955Z,73568.00
2019-06-10T12:33:25.587Z,77408.00
2019-06-10T12:34:25.329Z,72736.00
2019-06-10T12:35:25.436Z,48800.00
2019-06-10T12:37:25.981Z,78720.00
2019-06-10T12:38:25.335Z,79264.00
2019-06-10T12:39:25.280Z,79968.00
2019-06-10T12:40:25.278Z,79648.00
2019-06-10T12:41:25.282Z,79232.00
2019-06-10T12:42:25.672Z,81152.00
2019-06-10T12:43:25.819Z,19264.00
2019-06-10T12:45:25.780Z,14840.00
2019-06-10T12:46:25.322Z,12684.00
2019-06-10T12:47:25.320Z,11500.00
2019-06-10T12:48:25.369Z,10624.00
2019-06-10T12:51:26.760Z,12096.00
2019-06-10T12:52:26.037Z,12008.00
2019-06-10T12:53:25.442Z,13804.00
2019-06-10T12:54:26.174Z,16032.00
2019-06-10T12:57:27.382Z,27776.00
2019-06-10T12:58:26.435Z,12796.00
2019-06-10T12:59:25.527Z,9624.00
2019-06-10T13:00:26.504Z,9108.00
2019-06-10T13:01:25.485Z,9180.00
2019-06-10T13:02:31.161Z,9028.00
2019-06-10T13:03:25.376Z,8456.00
2019-06-10T13:04:25.782Z,8852.00
2019-06-10T13:05:25.604Z,8720.00
2019-06-10T13:06:25.825Z,8980.00
2019-06-10T13:07:25.573Z,8692.00
2019-06-10T13:08:25.422Z,8188.00
2019-06-10T13:09:25.586Z,7968.00
2019-06-10T13:10:25.890Z,8196.00
2019-06-10T13:11:25.406Z,8756.00
2019-06-10T13:12:25.558Z,9560.00
2019-06-10T13:13:25.415Z,10360.00
2019-06-10T13:14:25.327Z,11648.00
2019-06-10T13:17:25.632Z,13956.00
2019-06-10T13:18:26.479Z,15308.00
2019-06-10T13:19:26.088Z,42752.00
2019-06-10T13:20:26.062Z,80960.00
2019-06-10T13:21:33.162Z,14732.00
2019-06-10T13:22:28.468Z,61728.00
2019-06-10T13:23:31.580Z,69856.00
2019-06-10T13:24:25.306Z,9836.00
2019-06-10T13:25:25.803Z,10336.00
2019-06-10T13:26:25.639Z,11140.00
2019-06-10T13:27:25.637Z,9828.00
2019-06-10T13:28:25.824Z,9808.00
2019-06-10T13:29:25.690Z,9776.00
2019-06-10T13:30:25.735Z,10060.00
2019-06-10T13:31:25.525Z,10648.00
2019-06-10T13:32:25.379Z,10680.00
2019-06-10T13:33:26.020Z,10628.00
2019-06-10T13:34:25.492Z,10328.00
2019-06-10T13:35:25.643Z,9920.00
2019-06-10T13:37:25.392Z,8876.00
2019-06-10T13:38:25.928Z,8324.00
2019-06-10T13:39:27.672Z,8016.00
2019-06-10T13:40:25.685Z,7868.00
2019-06-10T13:41:25.204Z,8028.00
2019-06-10T13:43:26.796Z,8916.00
2019-06-10T13:44:25.376Z,9492.00
2019-06-10T13:45:25.653Z,10856.00
2019-06-10T13:46:36.925Z,12312.00
2019-06-10T13:47:26.128Z,13432.00
2019-06-10T13:48:27.186Z,14252.00
2019-06-10T13:49:25.672Z,26976.00
2019-06-10T13:50:25.870Z,51648.00
2019-06-10T13:55:25.187Z,22784.00
2019-06-10T13:56:43.083Z,22016.00
2019-06-10T13:57:25.378Z,20672.00
2019-06-10T13:58:25.321Z,19776.00
2019-06-10T13:59:25.459Z,19296.00
2019-06-10T14:00:40.459Z,16064.00
2019-06-10T14:03:25.565Z,16960.00
2019-06-10T14:04:25.817Z,18464.00
2019-06-10T14:05:25.095Z,14948.00
2019-06-10T14:06:39.550Z,15348.00
2019-06-10T14:07:26.175Z,20128.00
2019-06-10T14:08:25.272Z,20768.00
2019-06-10T14:09:25.194Z,17760.00
2019-06-10T14:10:25.334Z,14184.00
2019-06-10T14:11:28.430Z,12392.00
2019-06-10T14:12:25.066Z,12232.00
2019-06-10T14:13:25.200Z,12812.00
2019-06-10T14:14:25.004Z,12184.00